Time;durP1;ratioP1;P1;durP2;ratioP2;P2;SDS_P1;SDS_P2;PMS_P1;PMS_P2;Temp;Humidity;BMP_temperature;BMP_pressure;BME280_temperature;BME280_humidity;BME280_pressure;Samples;Min_cycle;Max_cycle;Signal;HPM_P1;HPM_P2
2024/01/08 00:01:33;;;;;;;11.52;4.57;;;12.20;1.00;;;;;;5082755;28;20119;-68
2024/01/08 00:03:59;;;;;;;6.75;4.30;;;;;;;;;;5081731;28;20380;-67
2024/01/08 00:06:25;;;;;;;8.10;4.85;;;12.50;1.00;;;;;;5083734;28;20061;-67
2024/01/08 00:08:51;;;;;;;8.27;4.32;;;;;;;;;;5082826;28;20044;-68
2024/01/08 00:11:17;;;;;;;7.45;4.05;;;12.30;1.00;;;;;;5083309;28;20032;-67
2024/01/08 00:13:43;;;;;;;7.00;4.72;;;;;;;;;;5087379;28;20110;-67
2024/01/08 00:16:09;;;;;;;6.47;4.10;;;;;;;;;;5089275;28;20452;-68
2024/01/08 00:18:35;;;;;;;6.68;4.07;;;;;;;;;;5097218;28;20095;-67
2024/01/08 00:21:02;;;;;;;6.50;3.67;;;;;;;;;;5096836;28;20039;-67
2024/01/08 00:23:29;;;;;;;5.88;4.13;;;12.40;1.00;;;;;;5096670;28;20043;-68
2024/01/08 00:25:55;;;;;;;6.00;3.92;;;12.40;1.00;;;;;;5097288;28;20040;-67
2024/01/08 00:28:21;;;;;;;5.60;3.97;;;;;;;;;;5096852;28;20043;-68
2024/01/08 00:30:46;;;;;;;7.38;4.38;;;;;;;;;;5096982;28;20043;-67
2024/01/08 00:33:12;;;;;;;8.60;3.85;;;;;;;;;;5097016;28;20502;-67
2024/01/08 00:35:38;;;;;;;6.13;3.95;;;12.50;1.00;;;;;;5096683;28;20040;-67
2024/01/08 00:38:04;;;;;;;6.68;4.00;;;;;;;;;;5079845;28;20038;-67
2024/01/08 00:40:29;;;;;;;6.38;4.05;;;12.40;1.00;;;;;;5096687;28;20128;-68
2024/01/08 00:42:57;;;;;;;7.65;4.20;;;;;;;;;;5096924;28;20032;-67
2024/01/08 00:45:23;;;;;;;6.93;3.83;;;;;;;;;;5096353;28;20097;-67
2024/01/08 00:47:49;;;;;;;7.15;4.65;;;;;;;;;;5096486;28;20031;-68
2024/01/08 00:50:16;;;;;;;8.02;4.20;;;;;;;;;;5096651;28;20047;-67
2024/01/08 00:52:42;;;;;;;6.68;4.07;;;;;;;;;;5096649;28;20051;-67
2024/01/08 00:55:11;;;;;;;6.32;4.03;;;;;;;;;;5096024;28;20092;-67
2024/01/08 00:57:37;;;;;;;10.23;4.03;;;12.40;1.00;;;;;;5096353;28;20055;-67
2024/01/08 01:00:04;;;;;;;7.53;3.70;;;;;;;;;;5096633;28;20479;-68
2024/01/08 01:02:30;;;;;;;7.22;3.63;;;;;;;;;;5096444;28;20039;-67
2024/01/08 01:04:56;;;;;;;5.85;3.75;;;;;;;;;;5095811;28;20092;-67
2024/01/08 01:07:22;;;;;;;7.47;3.88;;;;;;;;;;5096516;28;20494;-67
2024/01/08 01:09:48;;;;;;;8.07;3.78;;;12.30;1.00;;;;;;5096542;28;20044;-67
2024/01/08 01:12:13;;;;;;;6.68;4.07;;;12.40;1.00;;;;;;5079802;28;20047;-68
2024/01/08 01:14:39;;;;;;;8.73;4.20;;;12.20;1.00;;;;;;5095677;28;20035;-68
2024/01/08 01:17:06;;;;;;;7.15;4.03;;;12.30;1.00;;;;;;5095898;28;20200;-68
2024/01/08 01:19:32;;;;;;;8.40;4.40;;;12.30;1.00;;;;;;5096128;28;20047;-68
2024/01/08 01:21:58;;;;;;;6.20;4.20;;;12.00;1.00;;;;;;5095731;28;20046;-68
2024/01/08 01:24:23;;;;;;;8.25;4.45;;;12.10;1.00;;;;;;5077868;28;20031;-68
2024/01/08 01:26:49;;;;;;;8.55;3.80;;;;;;;;;;5079288;28;20067;-67
2024/01/08 01:29:15;;;;;;;9.00;4.13;;;;;;;;;;5096076;28;20044;-67
2024/01/08 01:31:41;;;;;;;8.93;4.38;;;;;;;;;;5095701;28;20146;-67
2024/01/08 01:34:10;;;;;;;7.72;3.70;;;;;;;;;;5095413;28;20046;-67
2024/01/08 01:36:36;;;;;;;8.18;4.07;;;12.00;1.00;;;;;;5095729;28;20118;-68
2024/01/08 01:39:03;;;;;;;8.65;4.95;;;11.90;1.00;;;;;;5079052;28;20036;-67
2024/01/08 01:41:28;;;;;;;7.13;4.50;;;12.00;1.00;;;;;;5095587;28;20042;-67
2024/01/08 01:43:54;;;;;;;6.88;4.00;;;;;;;;;;5095155;28;20032;-68
2024/01/08 01:46:26;;;;;;;7.13;4.60;;;;;;;;;;5095508;28;20080;-67
2024/01/08 01:48:52;;;;;;;8.48;4.20;;;;;;;;;;5095943;28;20046;-67
2024/01/08 01:51:18;;;;;;;7.43;4.07;;;;;;;;;;5095786;28;20472;-67
2024/01/08 01:53:45;;;;;;;9.13;4.32;;;;;;;;;;5095286;28;20043;-67
2024/01/08 01:56:11;;;;;;;6.80;3.92;;;;;;;;;;5078568;28;20130;-66
2024/01/08 01:58:37;;;;;;;6.75;3.25;;;11.90;1.00;;;;;;5095427;28;20550;-67
2024/01/08 02:01:03;;;;;;;5.93;3.58;;;;;;;;;;5095257;28;20126;-67
2024/01/08 02:03:29;;;;;;;10.48;4.40;;;;;;;;;;5078016;28;20091;-67
2024/01/08 02:05:55;;;;;;;8.70;4.20;;;11.90;1.00;;;;;;5095326;28;20536;-68
2024/01/08 02:08:22;;;;;;;7.95;5.03;;;11.80;1.00;;;;;;5095041;28;20075;-67
2024/01/08 02:10:47;;;;;;;7.50;4.20;;;12.00;1.00;;;;;;5095472;28;20410;-67
2024/01/08 02:13:13;;;;;;;7.32;4.22;;;;;;;;;;5095244;28;20035;-68
2024/01/08 02:15:39;;;;;;;8.23;4.18;;;;;;;;;;5094565;28;20075;-68
2024/01/08 02:18:06;;;;;;;7.47;4.55;;;;;;;;;;5093990;28;20526;-68
2024/01/08 02:20:32;;;;;;;6.55;3.92;;;;;;;;;;5094876;28;20081;-67
2024/01/08 02:22:58;;;;;;;9.25;5.05;;;;;;;;;;5094718;28;20403;-67
2024/01/08 02:25:26;;;;;;;7.35;4.40;;;12.20;1.00;;;;;;5094436;28;20039;-67
2024/01/08 02:27:52;;;;;;;7.85;4.13;;;;;;;;;;5094789;28;20071;-67
2024/01/08 02:30:18;;;;;;;7.90;4.13;;;;;;;;;;5095000;28;20465;-67
2024/01/08 02:32:44;;;;;;;7.70;4.68;;;;;;;;;;5094801;28;20104;-67
2024/01/08 02:35:10;;;;;;;7.22;4.85;;;;;;;;;;5094259;28;20047;-67
2024/01/08 02:37:36;;;;;;;7.20;4.25;;;;;;;;;;5094555;28;20499;-67
2024/01/08 02:40:03;;;;;;;8.93;4.90;;;;;;;;;;5094439;28;20040;-67
2024/01/08 02:42:29;;;;;;;7.72;5.60;;;;;;;;;;5094441;28;20046;-67
2024/01/08 02:44:55;;;;;;;8.77;4.57;;;;;;;;;;5093857;28;20039;-67
2024/01/08 02:47:21;;;;;;;6.70;4.32;;;;;;;;;;5112237;28;20040;-67
2024/01/08 02:49:46;;;;;;;9.48;4.93;;;12.10;1.00;;;;;;5094434;28;20035;-67
2024/01/08 02:52:12;;;;;;;12.70;5.10;;;12.00;1.00;;;;;;5094101;28;20499;-67
2024/01/08 02:54:37;;;;;;;8.65;4.45;;;12.00;1.00;;;;;;5094113;28;20372;-68
2024/01/08 02:57:03;;;;;;;7.97;4.90;;;;;;;;;;5094241;28;20037;-68
2024/01/08 02:59:29;;;;;;;8.75;5.03;;;;;;;;;;5094429;28;20724;-67
2024/01/08 03:01:55;;;;;;;8.18;4.75;;;;;;;;;;5077405;28;20101;-67
2024/01/08 03:04:21;;;;;;;7.10;4.53;;;;;;;;;;5093798;28;20415;-68
2024/01/08 03:06:47;;;;;;;8.68;4.75;;;12.20;1.00;;;;;;5094774;28;20040;-67
2024/01/08 03:09:13;;;;;;;7.95;4.80;;;;;;;;;;5095288;28;20070;-67
2024/01/08 03:11:38;;;;;;;8.23;5.35;;;12.00;1.00;;;;;;5094222;28;20036;-67
2024/01/08 03:14:04;;;;;;;12.77;5.45;;;;;;;;;;5093973;28;20039;-67
2024/01/08 03:16:30;;;;;;;8.27;5.63;;;;;;;;;;5093094;28;20483;-68
2024/01/08 03:18:56;;;;;;;11.15;5.32;;;;;;;;;;5075820;28;20071;-68
2024/01/08 03:21:22;;;;;;;8.15;5.22;;;;;;;;;;5076639;28;20043;-67
2024/01/08 03:23:48;;;;;;;7.30;4.70;;;;;;;;;;5093251;28;20035;-68
2024/01/08 03:26:14;;;;;;;13.45;5.22;;;;;;;;;;5093708;28;20554;-68
2024/01/08 03:28:40;;;;;;;9.38;5.43;;;12.30;1.00;;;;;;5093880;28;20042;-67
2024/01/08 03:31:06;;;;;;;8.50;4.88;;;;;;;;;;5093614;28;20036;-67
2024/01/08 03:33:32;;;;;;;10.65;5.78;;;;;;;;;;5092944;28;20038;-67
2024/01/08 03:35:58;;;;;;;11.77;5.57;;;;;;;;;;5093587;28;20062;-66
2024/01/08 03:38:24;;;;;;;10.02;5.60;;;;;;;;;;5093749;28;20146;-67
2024/01/08 03:40:49;;;;;;;10.82;5.53;;;12.00;1.00;;;;;;5093305;28;20092;-67
2024/01/08 03:43:15;;;;;;;10.10;5.57;;;;;;;;;;5094020;28;20036;-69
2024/01/08 03:45:41;;;;;;;9.70;5.63;;;;;;;;;;5094672;28;20698;-68
2024/01/08 03:48:07;;;;;;;9.25;5.82;;;;;;;;;;5100087;28;20035;-66
2024/01/08 03:50:35;;;;;;;7.88;5.10;;;12.20;1.00;;;;;;5100607;28;20035;-67
2024/01/08 03:53:01;;;;;;;11.05;5.63;;;;;;;;;;5100248;28;20413;-68
2024/01/08 03:55:27;;;;;;;8.07;5.97;;;;;;;;;;5099689;28;20047;-68
2024/01/08 03:57:52;;;;;;;8.57;5.10;;;12.20;1.00;;;;;;5100194;28;20048;-68
2024/01/08 04:00:18;;;;;;;14.90;5.68;;;;;;;;;;5099312;28;20490;-67
2024/01/08 04:02:44;;;;;;;6.53;4.93;;;;;;;;;;5100148;28;20036;-67
2024/01/08 04:05:11;;;;;;;9.27;5.43;;;;;;;;;;5117716;28;20040;-68
2024/01/08 04:07:37;;;;;;;10.55;5.22;;;12.30;1.00;;;;;;5099899;28;20176;-67
2024/01/08 04:10:04;;;;;;;9.35;5.13;;;;;;;;;;5100209;28;20122;-68
2024/01/08 04:12:30;;;;;;;7.68;5.90;;;;;;;;;;5099989;28;20050;-67
2024/01/08 04:14:56;;;;;;;10.90;5.35;;;12.30;1.00;;;;;;5099717;28;20050;-67
2024/01/08 04:17:21;;;;;;;8.77;5.38;;;12.30;1.00;;;;;;5099987;28;20043;-67
2024/01/08 04:19:47;;;;;;;9.70;5.00;;;;;;;;;;5099551;28;20050;-67
2024/01/08 04:22:13;;;;;;;8.82;5.18;;;;;;;;;;5083544;28;20051;-71
2024/01/08 04:24:39;;;;;;;7.95;5.05;;;;;;;;;;5098736;28;20076;-68
2024/01/08 04:27:06;;;;;;;10.73;5.88;;;;;;;;;;5098610;28;20620;-68
2024/01/08 04:29:32;;;;;;;9.30;5.68;;;;;;;;;;5099742;28;20038;-68
2024/01/08 04:31:58;;;;;;;11.10;5.72;;;;;;;;;;5099302;28;20122;-70
2024/01/08 04:34:24;;;;;;;10.23;5.60;;;;;;;;;;5099750;28;20088;-70
2024/01/08 04:36:50;;;;;;;6.90;4.90;;;;;;;;;;5099610;28;20059;-68
2024/01/08 04:39:16;;;;;;;9.55;5.57;;;;;;;;;;5100041;28;20187;-70
2024/01/08 04:41:41;;;;;;;9.95;5.22;;;12.30;1.00;;;;;;5118021;28;20039;-70
2024/01/08 04:44:07;;;;;;;10.65;5.38;;;12.20;1.00;;;;;;5099671;28;20042;-68
2024/01/08 04:46:33;;;;;;;9.13;4.93;;;12.20;1.00;;;;;;5100039;28;20049;-66
2024/01/08 04:48:59;;;;;;;8.45;4.82;;;;;;;;;;5099583;28;20105;-70
2024/01/08 04:51:25;;;;;;;9.73;5.15;;;12.40;1.00;;;;;;5099739;28;20044;-70
2024/01/08 04:53:52;;;;;;;11.25;5.18;;;12.60;1.00;;;;;;5099034;28;20040;-69
2024/01/08 04:56:24;;;;;;;9.40;5.13;;;;;;;;;;5099607;28;20506;-69
2024/01/08 04:58:51;;;;;;;7.85;4.70;;;;;;;;;;5096666;28;20240;-69
2024/01/08 05:01:17;;;;;;;7.38;4.47;;;;;;;;;;5096174;28;20039;-71
2024/01/08 05:03:43;;;;;;;8.25;4.90;;;;;;;;;;5095715;28;20063;-71
2024/01/08 05:06:10;;;;;;;10.30;4.40;;;12.60;1.00;;;;;;5095982;28;20067;-71
2024/01/08 05:08:37;;;;;;;7.30;4.45;;;12.50;1.00;;;;;;5096786;28;20136;-69
2024/01/08 05:11:04;;;;;;;7.50;5.00;;;12.60;1.00;;;;;;5079232;28;20188;-69
2024/01/08 05:13:30;;;;;;;7.40;4.45;;;12.40;1.00;;;;;;5079011;28;20051;-69
2024/01/08 05:15:56;;;;;;;7.80;5.03;;;;;;;;;;5096264;28;20404;-72
2024/01/08 05:18:22;;;;;;;8.45;4.53;;;;;;;;;;5096381;28;20130;-71
2024/01/08 05:20:48;;;;;;;8.98;4.43;;;;;;;;;;5095524;28;20434;-66
2024/01/08 05:23:14;;;;;;;5.97;4.22;;;;;;;;;;5096447;28;20047;-68
2024/01/08 05:25:39;;;;;;;5.25;3.58;;;12.40;1.00;;;;;;5095874;28;20078;-69
2024/01/08 05:28:06;;;;;;;13.13;4.82;;;12.40;1.00;;;;;;5095950;28;20494;-68
2024/01/08 05:30:32;;;;;;;8.30;4.10;;;12.40;1.00;;;;;;5096056;28;20093;-69
2024/01/08 05:32:57;;;;;;;7.13;4.50;;;12.40;1.00;;;;;;5096270;28;20047;-69
2024/01/08 05:35:23;;;;;;;6.30;3.97;;;;;;;;;;5095279;28;20502;-71
2024/01/08 05:37:49;;;;;;;8.55;4.72;;;;;;;;;;5095947;28;20039;-69
2024/01/08 05:40:15;;;;;;;6.88;4.07;;;;;;;;;;5095732;28;20046;-71
2024/01/08 05:42:41;;;;;;;8.77;3.70;;;;;;;;;;5095791;28;20126;-71
2024/01/08 05:45:07;;;;;;;6.75;3.40;;;;;;;;;;5095270;28;20044;-71
2024/01/08 05:47:34;;;;;;;6.15;3.85;;;;;;;;;;5095436;28;20494;-70
2024/01/08 05:50:03;;;;;;;8.18;4.03;;;;;;;;;;5095685;28;20047;-69
2024/01/08 05:52:28;;;;;;;5.72;3.63;;;12.30;1.00;;;;;;5095507;28;20510;-68
2024/01/08 05:54:55;;;;;;;5.85;3.20;;;12.10;1.00;;;;;;5095000;28;20031;-69
2024/01/08 05:57:21;;;;;;;6.28;4.05;;;;;;;;;;5095667;28;20525;-68
2024/01/08 05:59:46;;;;;;;6.72;3.83;;;12.10;1.00;;;;;;5078674;28;20120;-67
2024/01/08 06:02:12;;;;;;;6.22;4.43;;;;;;;;;;5095206;28;20032;-69
2024/01/08 06:04:38;;;;;;;6.43;3.67;;;11.90;1.00;;;;;;5094873;28;20039;-69
2024/01/08 06:07:04;;;;;;;8.38;4.90;;;;;;;;;;5078291;28;20039;-70
2024/01/08 06:09:30;;;;;;;4.90;3.42;;;;;;;;;;5095112;28;20555;-69
2024/01/08 06:11:58;;;;;;;8.18;3.63;;;11.90;1.00;;;;;;5095143;28;20042;-70
2024/01/08 06:14:24;;;;;;;5.07;3.40;;;11.90;1.00;;;;;;5094654;28;20082;-68
2024/01/08 06:16:50;;;;;;;6.85;3.70;;;;;;;;;;5078310;28;20129;-68
2024/01/08 06:19:16;;;;;;;7.20;3.67;;;;;;;;;;5088396;28;20036;-68
2024/01/08 06:21:42;;;;;;;9.95;4.80;;;11.90;1.00;;;;;;5074591;28;20037;-68
2024/01/08 06:24:07;;;;;;;6.88;4.53;;;11.90;1.00;;;;;;5073923;28;20042;-69
2024/01/08 06:26:33;;;;;;;6.22;3.80;;;12.00;1.00;;;;;;5074545;28;20043;-69
2024/01/08 06:29:00;;;;;;;6.07;4.10;;;;;;;;;;5074951;28;20094;-69
2024/01/08 06:31:26;;;;;;;8.15;4.35;;;;;;;;;;5074646;28;20093;-68
2024/01/08 06:33:52;;;;;;;9.60;4.40;;;;;;;;;;5074339;28;20476;-68
2024/01/08 06:36:18;;;;;;;7.18;4.32;;;;;;;;;;5074646;28;20521;-69
2024/01/08 06:38:45;;;;;;;6.78;4.03;;;11.80;1.00;;;;;;5074420;28;20040;-69
2024/01/08 06:41:11;;;;;;;7.45;4.65;;;;;;;;;;5057535;28;20051;-69
2024/01/08 06:43:38;;;;;;;5.93;4.13;;;11.90;1.00;;;;;;5073797;28;20036;-68
2024/01/08 06:46:06;;;;;;;5.97;4.00;;;;;;;;;;5074360;28;20051;-71
2024/01/08 06:48:32;;;;;;;8.90;4.18;;;;;;;;;;5074341;28;20043;-69
2024/01/08 06:51:01;;;;;;;7.05;3.95;;;11.80;1.00;;;;;;5074061;28;20044;-70
2024/01/08 06:53:27;;;;;;;11.93;4.07;;;;;;;;;;5073510;28;20047;-69
2024/01/08 06:55:53;;;;;;;7.90;4.22;;;;;;;;;;5074125;28;20044;-68
2024/01/08 06:58:19;;;;;;;8.55;4.93;;;;;;;;;;5073888;28;20047;-69
2024/01/08 07:00:45;;;;;;;9.23;4.10;;;;;;;;;;5073712;28;20036;-68
2024/01/08 07:03:11;;;;;;;5.93;4.22;;;;;;;;;;5073804;28;20039;-69
2024/01/08 07:05:37;;;;;;;7.80;3.95;;;;;;;;;;5073447;28;20081;-69
2024/01/08 07:08:03;;;;;;;7.10;4.50;;;;;;;;;;5073833;28;20466;-69
2024/01/08 07:10:30;;;;;;;6.15;3.70;;;;;;;;;;5074014;28;20102;-70
2024/01/08 07:12:56;;;;;;;9.55;4.13;;;;;;;;;;5092094;28;20047;-69
2024/01/08 07:15:38;;;;;;;9.80;5.50;;;;;;;;;;5073401;28;20052;-69
2024/01/08 07:18:05;;;;;;;6.68;3.72;;;;;;;;;;5073415;28;20495;-69
2024/01/08 07:20:31;;;;;;;9.48;4.93;;;;;;;;;;5072695;28;20047;-68
2024/01/08 07:22:57;;;;;;;8.07;3.85;;;;;;;;;;5076084;28;20040;-68
2024/01/08 07:25:23;;;;;;;11.77;4.38;;;;;;;;;;5065049;28;20043;-68
2024/01/08 07:27:49;;;;;;;10.00;4.43;;;;;;;;;;5084012;28;20035;-69
2024/01/08 07:30:15;;;;;;;7.97;4.22;;;;;;;;;;5083587;28;20042;-69
2024/01/08 07:32:41;;;;;;;9.50;3.50;;;;;;;;;;5082341;28;20109;-69
2024/01/08 07:35:07;;;;;;;8.80;3.83;;;;;;;;;;5083593;28;20035;-69
2024/01/08 07:37:33;;;;;;;7.15;3.95;;;;;;;;;;5081748;28;20075;-69
2024/01/08 07:39:59;;;;;;;10.50;4.10;;;;;;;;;;5082483;28;20036;-69
2024/01/08 07:42:25;;;;;;;9.52;4.93;;;;;;;;;;5083464;28;20032;-69
2024/01/08 07:44:51;;;;;;;6.18;3.63;;;;;;;;;;5083212;28;20040;-69
2024/01/08 07:47:17;;;;;;;8.93;4.35;;;;;;;;;;5067716;28;20407;-70
2024/01/08 07:49:43;;;;;;;5.97;3.75;;;;;;;;;;5067317;28;20027;-71
2024/01/08 07:52:09;;;;;;;11.75;4.50;;;;;;;;;;5083785;28;20062;-69
2024/01/08 07:54:35;;;;;;;6.60;3.92;;;;;;;;;;5093077;28;20129;-68
2024/01/08 07:57:02;;;;;;;8.50;3.42;;;;;;;;;;5093467;28;20050;-69
2024/01/08 07:59:28;;;;;;;7.88;3.70;;;;;;;;;;5090615;28;20035;-68
2024/01/08 08:01:54;;;;;;;9.27;3.90;;;;;;;;;;5064432;28;20040;-69
2024/01/08 08:04:20;;;;;;;7.65;4.32;;;;;;;;;;5055769;28;20043;-69
2024/01/08 08:06:46;;;;;;;12.32;5.18;;;;;;;;;;5056413;28;20040;-71
2024/01/08 08:09:12;;;;;;;6.03;3.75;;;;;;;;;;5073315;28;20071;-72
2024/01/08 08:11:39;;;;;;;8.82;3.70;;;;;;;;;;5074558;28;20047;-72
2024/01/08 08:14:05;;;;;;;9.27;3.92;;;;;;;;;;5072585;28;20121;-69
2024/01/08 08:16:31;;;;;;;6.15;3.47;;;;;;;;;;5072981;28;20087;-69
2024/01/08 08:18:57;;;;;;;5.95;3.85;;;;;;;;;;5051291;28;20036;-70
2024/01/08 08:21:23;;;;;;;6.88;4.05;;;;;;;;;;5068583;28;20040;-67
2024/01/08 08:23:50;;;;;;;6.55;3.58;;;;;;;;;;5068293;28;20028;-69
2024/01/08 08:26:16;;;;;;;7.22;3.85;;;;;;;;;;5068847;28;20466;-68
2024/01/08 08:28:43;;;;;;;10.05;4.40;;;;;;;;;;5052348;28;20032;-71
2024/01/08 08:31:08;;;;;;;7.55;4.30;;;;;;;;;;5068768;28;20050;-71
2024/01/08 08:33:35;;;;;;;9.57;3.75;;;;;;;;;;5071997;28;20055;-70
2024/01/08 08:36:01;;;;;;;10.27;3.92;;;;;;;;;;5072655;28;20475;-69
2024/01/08 08:38:27;;;;;;;6.82;3.60;;;;;;;;;;5072690;28;20039;-71
2024/01/08 08:40:53;;;;;;;5.57;3.80;;;;;;;;;;5070895;28;20040;-72
2024/01/08 08:43:19;;;;;;;7.90;3.30;;;;;;;;;;5072340;28;20119;-73
2024/01/08 08:45:45;;;;;;;6.60;3.90;;;;;;;;;;5071172;28;20128;-69
2024/01/08 08:48:11;;;;;;;11.63;4.00;;;;;;;;;;5068624;28;20689;-69
2024/01/08 08:50:38;;;;;;;5.95;3.00;;;;;;;;;;5072104;28;20044;-74
2024/01/08 08:53:04;;;;;;;11.32;4.68;;;;;;;;;;5055638;28;20040;-69
2024/01/08 08:55:30;;;;;;;8.43;3.08;;;;;;;;;;5072091;28;20470;-69
2024/01/08 08:57:56;;;;;;;9.10;3.38;;;;;;;;;;5071513;28;20040;-71
2024/01/08 09:00:22;;;;;;;9.07;3.30;;;;;;;;;;5072207;28;20043;-72
2024/01/08 09:02:50;;;;;;;9.48;3.78;;;;;;;;;;5055617;28;20039;-71
2024/01/08 09:05:17;;;;;;;10.85;4.75;;;;;;;;;;5071629;28;20115;-71
2024/01/08 09:07:43;;;;;;;7.72;3.63;;;;;;;;;;5071664;28;20058;-71
2024/01/08 09:10:09;;;;;;;10.43;4.03;;;;;;;;;;5071774;28;20329;-70
2024/01/08 09:12:35;;;;;;;5.75;3.60;;;;;;;;;;5071493;28;20050;-69
2024/01/08 09:15:01;;;;;;;6.88;3.47;;;;;;;;;;5071248;28;20044;-72
2024/01/08 09:17:29;;;;;;;8.77;3.40;;;;;;;;;;5071820;28;20502;-71
2024/01/08 09:19:55;;;;;;;5.45;3.20;;;;;;;;;;5071777;28;20130;-74
2024/01/08 09:22:21;;;;;;;11.27;4.22;;;;;;;;;;5071563;28;20043;-68
2024/01/08 09:24:47;;;;;;;5.95;2.75;;;;;;;;;;5054159;28;20047;-67
2024/01/08 09:27:13;;;;;;;7.93;3.60;;;;;;;;;;5071558;28;20047;-70
2024/01/08 09:29:39;;;;;;;8.85;3.60;;;;;;;;;;5072330;28;20044;-69
2024/01/08 09:32:05;;;;;;;6.68;3.10;;;;;;;;;;5071476;28;20074;-69
2024/01/08 09:34:31;;;;;;;8.82;3.67;;;;;;;;;;5078603;28;20040;-69
2024/01/08 09:36:57;;;;;;;5.50;2.80;;;;;;;;;;5084977;28;20490;-69
2024/01/08 09:39:23;;;;;;;7.15;3.28;;;;;;;;;;5087144;28;20126;-69
2024/01/08 09:41:49;;;;;;;6.28;2.83;;;;;;;;;;5095273;28;20126;-67
2024/01/08 09:44:16;;;;;;;7.15;2.90;;;;;;;;;;5094152;28;20039;-69
2024/01/08 09:46:46;;;;;;;7.25;3.63;;;;;;;;;;5095521;28;20091;-70
2024/01/08 09:49:13;;;;;;;8.45;2.92;;;;;;;;;;5080835;28;20032;-69
2024/01/08 09:51:41;;;;;;;6.63;2.80;;;;;;;;;;5075585;28;20118;-69
2024/01/08 09:54:07;;;;;;;4.45;2.92;;;;;;;;;;5078802;28;20036;-69
2024/01/08 09:56:33;;;;;;;4.78;3.03;;;;;;;;;;5077719;28;20081;-68
2024/01/08 09:58:59;;;;;;;5.40;2.65;;;;;;;;;;5083150;28;20123;-69
2024/01/08 10:01:26;;;;;;;3.63;2.20;;;;;;;;;;5084145;28;20504;-69
2024/01/08 10:03:52;;;;;;;4.70;2.55;;;;;;;;;;5083864;28;20415;-70
2024/01/08 10:06:18;;;;;;;8.30;3.20;;;;;;;;;;5085404;28;20487;-69
2024/01/08 10:08:45;;;;;;;7.10;2.65;;;;;;;;;;5084111;28;20114;-69
2024/01/08 10:11:11;;;;;;;6.07;2.75;;;;;;;;;;5084158;28;20039;-69
2024/01/08 10:13:39;;;;;;;3.25;2.50;;;;;;;;;;5085137;28;20042;-72
2024/01/08 10:16:05;;;;;;;5.70;2.92;;;;;;;;;;5083963;28;20062;-69
2024/01/08 10:18:31;;;;;;;9.10;3.22;;;;;;;;;;5067237;28;20097;-69
2024/01/08 10:21:10;;;;;;;6.22;2.95;;;;;;;;;;5085857;28;20058;-68
2024/01/08 10:23:36;;;;;;;4.63;2.40;;;;;;;;;;5092818;28;20055;-68
2024/01/08 10:26:03;;;;;;;5.93;2.30;;;;;;;;;;5085851;28;20067;-68
2024/01/08 10:28:36;;;;;;;3.90;2.30;;;;;;;;;;5084261;28;20039;-68
2024/01/08 10:31:05;;;;;;;5.05;2.88;;;;;;;;;;5083011;28;20036;-68
2024/01/08 10:33:32;;;;;;;4.63;2.25;;;;;;;;;;5083819;28;20469;-68
2024/01/08 10:36:00;;;;;;;3.38;2.08;;;;;;;;;;5085064;28;20744;-68
2024/01/08 10:38:27;;;;;;;4.00;2.28;;;;;;;;;;5081159;28;20123;-68
2024/01/08 10:40:56;;;;;;;3.97;2.38;;;;;;;;;;5083847;28;20040;-68
2024/01/08 10:43:22;;;;;;;5.13;3.03;;;;;;;;;;5084416;28;20106;-66
2024/01/08 10:45:49;;;;;;;4.40;2.47;;;;;;;;;;5083560;28;20514;-69
2024/01/08 10:48:20;;;;;;;3.50;2.25;;;;;;;;;;5083421;28;20048;-69
2024/01/08 10:50:46;;;;;;;6.15;2.33;;;;;;;;;;5064048;28;20044;-68
2024/01/08 10:53:19;;;;;;;5.57;2.80;;;;;;;;;;5083480;28;20487;-68
2024/01/08 10:55:45;;;;;;;4.88;2.63;;;;;;;;;;5063348;28;20036;-68
2024/01/08 10:58:17;;;;;;;3.08;2.03;;;;;;;;;;5083336;28;20036;-68
2024/01/08 11:00:43;;;;;;;4.03;2.10;;;;;;;;;;5084497;28;20047;-68
2024/01/08 11:03:09;;;;;;;5.82;2.65;;;;;;;;;;5066512;28;20089;-68
2024/01/08 11:05:37;;;;;;;6.28;2.70;;;;;;;;;;5082239;28;20028;-68
2024/01/08 11:08:04;;;;;;;4.75;2.60;;;;;;;;;;5079841;28;20067;-69
2024/01/08 11:10:30;;;;;;;3.70;2.60;;;;;;;;;;5078091;28;20043;-67
2024/01/08 11:12:56;;;;;;;3.65;2.72;;;;;;;;;;5073804;28;20048;-69
2024/01/08 11:15:29;;;;;;;3.42;2.40;;;;;;;;;;5073114;28;20040;-69
2024/01/08 11:17:56;;;;;;;4.32;2.67;;;;;;;;;;5081291;28;20048;-68
2024/01/08 11:20:34;;;;;;;5.65;2.90;;;;;;;;;;5083934;28;20044;-68
2024/01/08 11:23:04;;;;;;;5.75;2.55;;;;;;;;;;5077797;28;20505;-68
2024/01/08 11:25:30;;;;;;;3.70;2.83;;;;;;;;;;5073130;28;20399;-69
2024/01/08 11:27:59;;;;;;;9.98;2.45;;;;;;;;;;5073613;28;20365;-68
2024/01/08 11:30:25;;;;;;;5.38;2.83;;;;;;;;;;5073734;28;20066;-69
2024/01/08 11:33:00;;;;;;;5.65;2.70;;;;;;;;;;5064569;28;20040;-69
2024/01/08 11:35:29;;;;;;;4.13;2.47;;;;;;;;;;5073408;28;20047;-70
2024/01/08 11:38:05;;;;;;;8.95;4.30;;;;;;;;;;5057589;28;20463;-67
2024/01/08 11:40:31;;;;;;;4.53;2.60;;;;;;;;;;5081982;28;20047;-70
2024/01/08 11:42:58;;;;;;;4.40;2.42;;;;;;;;;;5078271;28;20603;-69
2024/01/08 11:45:25;;;;;;;3.72;2.60;;;;;;;;;;5081161;28;20114;-69
2024/01/08 11:47:51;;;;;;;5.28;2.60;;;;;;;;;;5093630;28;20047;-70
2024/01/08 11:50:18;;;;;;;4.80;2.20;;;;;;;;;;5093320;28;20043;-70
2024/01/08 11:52:44;;;;;;;3.65;2.05;;;;;;;;;;5093582;28;20097;-70
2024/01/08 11:55:10;;;;;;;7.15;2.75;;;;;;;;;;5093081;28;20373;-69
2024/01/08 11:57:37;;;;;;;4.07;2.42;;;;;;;;;;5068935;28;20039;-69
2024/01/08 12:00:13;;;;;;;4.35;2.17;;;;;;;;;;5068611;28;20052;-68
2024/01/08 12:02:39;;;;;;;6.10;2.45;;;;;;;;;;5069107;28;20047;-69
2024/01/08 12:05:06;;;;;;;4.47;2.33;;;;;;;;;;5072398;28;20075;-68
2024/01/08 12:07:32;;;;;;;6.30;2.38;;;;;;;;;;5066805;28;20047;-68
2024/01/08 12:10:04;;;;;;;5.07;2.30;;;;;;;;;;5073365;28;20445;-69
2024/01/08 12:12:30;;;;;;;3.05;2.08;;;;;;;;;;5062760;28;20036;-68
2024/01/08 12:14:56;;;;;;;4.10;2.67;;;;;;;;;;5072495;28;20126;-67
2024/01/08 12:17:22;;;;;;;4.75;2.45;;;;;;;;;;5056629;28;20119;-68
2024/01/08 12:19:58;;;;;;;6.07;2.70;;;;;;;;;;5072818;28;20402;-69
2024/01/08 12:22:25;;;;;;;4.55;2.45;;;;;;;;;;5072939;28;20468;-70
2024/01/08 12:24:56;;;;;;;5.72;2.42;;;;;;;;;;5071466;28;20131;-68
2024/01/08 12:27:25;;;;;;;5.13;2.78;;;;;;;;;;5071862;28;20044;-66
2024/01/08 12:29:54;;;;;;;4.57;2.75;;;;;;;;;;5071535;28;20087;-69
2024/01/08 12:32:21;;;;;;;5.85;2.50;;;;;;;;;;5073814;28;20040;-68
2024/01/08 12:34:47;;;;;;;6.10;3.00;;;;;;;;;;5055398;28;20047;-68
2024/01/08 12:37:15;;;;;;;6.22;2.25;;;;;;;;;;5066216;28;20036;-67
2024/01/08 12:39:41;;;;;;;3.20;2.25;;;;;;;;;;5072238;28;20048;-68
2024/01/08 12:42:11;;;;;;;3.22;2.47;;;;;;;;;;5071211;28;20050;-69
2024/01/08 12:44:37;;;;;;;8.40;2.78;;;;;;;;;;5074868;28;20032;-68
2024/01/08 12:47:05;;;;;;;5.13;2.83;;;;;;;;;;5075555;28;20040;-68
2024/01/08 12:49:31;;;;;;;5.53;2.38;;;;;;;;;;5076345;28;20198;-69
2024/01/08 12:52:00;;;;;;;3.80;2.42;;;;;;;;;;5076551;28;20040;-68
2024/01/08 12:54:26;;;;;;;4.88;2.83;;;;;;;;;;5075819;28;20119;-68
2024/01/08 12:56:52;;;;;;;5.90;2.38;;;;;;;;;;5076125;28;20050;-69
2024/01/08 12:59:18;;;;;;;4.78;2.92;;;;;;;;;;5076310;28;20131;-69
2024/01/08 13:01:44;;;;;;;3.78;2.42;;;;;;;;;;5076057;28;20039;-69
2024/01/08 13:04:11;;;;;;;3.22;2.25;;;;;;;;;;5075659;28;20043;-69
2024/01/08 13:06:37;;;;;;;4.95;2.38;;;;;;;;;;5076335;28;20042;-69
2024/01/08 13:09:05;;;;;;;3.97;2.50;;;;;;;;;;5059493;28;20040;-69
2024/01/08 13:11:31;;;;;;;4.35;2.70;;;;;;;;;;5076116;28;20052;-69
2024/01/08 13:13:57;;;;;;;4.82;3.13;;;;;;;;;;5075570;28;20518;-69
2024/01/08 13:16:23;;;;;;;5.15;2.72;;;;;;;;;;5059450;28;20040;-69
2024/01/08 13:18:49;;;;;;;7.03;3.40;;;;;;;;;;5058010;28;20042;-70
2024/01/08 13:21:15;;;;;;;3.85;2.65;;;;;;;;;;5075742;28;20081;-70
2024/01/08 13:23:42;;;;;;;4.22;2.45;;;;;;;;;;5075428;28;20432;-68
2024/01/08 13:26:12;;;;;;;6.43;2.28;;;;;;;;;;5075612;28;20127;-68
2024/01/08 13:28:38;;;;;;;5.55;3.08;;;;;;;;;;5075852;28;20519;-68
2024/01/08 13:31:04;;;;;;;4.85;2.78;;;;;;;;;;5075663;28;20039;-69
2024/01/08 13:33:31;;;;;;;4.22;3.20;;;;;;;;;;5058685;28;20050;-68
2024/01/08 13:35:57;;;;;;;6.88;3.17;;;;;;;;;;5077310;28;20149;-68
2024/01/08 13:38:23;;;;;;;4.50;2.90;;;;;;;;;;5080558;28;20121;-69
2024/01/08 13:40:49;;;;;;;5.05;3.10;;;;;;;;;;5075083;28;20491;-69
2024/01/08 13:43:15;;;;;;;7.80;3.75;;;;;;;;;;5075469;28;20081;-68
2024/01/08 13:45:41;;;;;;;6.60;3.28;;;;;;;;;;5074986;28;20047;-69
2024/01/08 13:48:07;;;;;;;6.90;2.72;;;;;;;;;;5075517;28;20039;-69
2024/01/08 13:50:33;;;;;;;4.13;2.53;;;;;;;;;;5075673;28;20043;-69
2024/01/08 13:52:59;;;;;;;5.53;2.92;;;;;;;;;;5058678;28;20040;-68
2024/01/08 13:55:25;;;;;;;6.38;3.47;;;;;;;;;;5058181;28;20412;-69
2024/01/08 13:57:51;;;;;;;8.00;3.20;;;;;;;;;;5074926;28;20055;-69
2024/01/08 14:00:17;;;;;;;6.32;3.00;;;;;;;;;;5075013;28;20047;-69
2024/01/08 14:02:43;;;;;;;5.75;3.00;;;;;;;;;;5074922;28;20040;-68
2024/01/08 14:05:10;;;;;;;6.03;3.15;;;;;;;;;;5074405;28;20091;-69
2024/01/08 14:07:36;;;;;;;4.80;2.78;;;;;;;;;;5074952;28;20036;-69
2024/01/08 14:10:02;;;;;;;5.60;3.47;;;;;;;;;;5092911;28;20044;-69
2024/01/08 14:12:28;;;;;;;5.55;3.28;;;;;;;;;;5075043;28;20127;-69
2024/01/08 14:14:54;;;;;;;5.93;3.10;;;;;;;;;;5074671;28;20381;-69
2024/01/08 14:17:20;;;;;;;4.15;2.90;;;;;;;;;;5074498;28;20036;-69